createdAt,value
2019-03-31T00:00:33.756Z,81.88
2019-03-31T00:01:33.760Z,82.09
2019-03-31T00:02:33.737Z,81.06
2019-03-31T00:03:33.756Z,81.37
2019-03-31T00:04:33.720Z,81.57
2019-03-31T00:05:36.990Z,81.57
2019-03-31T00:06:33.689Z,81.48
2019-03-31T00:07:33.681Z,80.96
2019-03-31T00:08:33.673Z,80.45
2019-03-31T00:09:33.676Z,80.35
2019-03-31T00:10:33.665Z,80.45
2019-03-31T00:11:33.636Z,80.35
2019-03-31T00:12:33.635Z,80.14
2019-03-31T00:13:33.624Z,80.10
2019-03-31T00:14:33.602Z,79.49
2019-03-31T00:15:33.592Z,79.69
2019-03-31T00:16:33.581Z,79.28
2019-03-31T00:17:33.568Z,79.80
2019-03-31T00:18:33.565Z,79.90
2019-03-31T00:19:33.564Z,79.59
2019-03-31T00:20:33.534Z,79.59
2019-03-31T00:21:33.523Z,78.97
2019-03-31T00:22:33.512Z,79.28
2019-03-31T00:23:33.496Z,79.28
2019-03-31T00:24:33.494Z,79.28
2019-03-31T00:25:33.504Z,79.24
2019-03-31T00:26:33.468Z,79.08
2019-03-31T00:27:33.456Z,79.49
2019-03-31T00:28:33.444Z,79.28
2019-03-31T00:29:33.431Z,79.04
2019-03-31T00:30:33.432Z,79.28
2019-03-31T00:31:33.412Z,79.14
2019-03-31T00:32:33.404Z,79.66
2019-03-31T00:33:33.388Z,79.45
2019-03-31T00:34:33.372Z,79.45
2019-03-31T00:35:33.400Z,79.35
2019-03-31T00:36:33.352Z,79.24
2019-03-31T00:37:33.345Z,78.74
2019-03-31T00:38:33.340Z,79.75
2019-03-31T00:39:33.320Z,79.45
2019-03-31T00:40:33.308Z,79.55
2019-03-31T00:41:33.312Z,79.35
2019-03-31T00:42:33.287Z,79.55
2019-03-31T00:43:33.276Z,79.35
2019-03-31T00:44:33.268Z,79.24
2019-03-31T00:45:33.257Z,78.74
2019-03-31T00:46:33.240Z,79.35
2019-03-31T00:47:33.272Z,79.66
2019-03-31T00:48:33.216Z,79.24
2019-03-31T00:49:33.210Z,79.24
2019-03-31T00:50:33.199Z,79.24
2019-03-31T00:51:33.187Z,79.35
2019-03-31T00:52:33.173Z,79.04
2019-03-31T00:53:33.185Z,79.86
2019-03-31T00:54:33.148Z,79.04
2019-03-31T00:55:33.140Z,79.14
2019-03-31T00:56:33.127Z,79.55
2019-03-31T00:57:33.116Z,79.45
2019-03-31T00:58:33.108Z,79.04
2019-03-31T00:59:33.120Z,79.04
2019-03-31T01:00:33.081Z,78.74
2019-03-31T01:01:36.599Z,79.14
2019-03-31T01:02:33.062Z,79.24
2019-03-31T01:03:33.050Z,79.55
2019-03-31T01:04:33.038Z,79.45
2019-03-31T01:05:33.040Z,79.45
2019-03-31T01:06:33.012Z,79.55
2019-03-31T01:07:33.007Z,79.24
2019-03-31T01:08:32.990Z,79.14
2019-03-31T01:09:32.981Z,79.45
2019-03-31T01:10:32.996Z,79.55
2019-03-31T01:11:32.966Z,79.24
2019-03-31T01:12:32.956Z,79.14
2019-03-31T01:13:32.942Z,79.35
2019-03-31T01:14:32.921Z,79.35
2019-03-31T01:15:32.912Z,79.49
2019-03-31T01:16:32.918Z,79.66
2019-03-31T01:17:32.892Z,79.35
2019-03-31T01:18:32.880Z,79.96
2019-03-31T01:19:32.868Z,80.07
2019-03-31T01:20:32.860Z,79.86
2019-03-31T01:21:32.848Z,79.96
2019-03-31T01:22:32.847Z,80.07
2019-03-31T01:23:32.820Z,80.41
2019-03-31T01:24:32.812Z,80.47
2019-03-31T01:25:32.799Z,80.21
2019-03-31T01:26:32.786Z,80.58
2019-03-31T01:27:32.775Z,80.07
2019-03-31T01:28:32.780Z,80.21
2019-03-31T01:29:32.771Z,80.82
2019-03-31T01:30:32.748Z,81.13
2019-03-31T01:31:32.735Z,80.62
2019-03-31T01:32:32.732Z,80.82
2019-03-31T01:33:32.730Z,81.54
2019-03-31T01:34:32.727Z,80.92
2019-03-31T01:35:32.687Z,81.34
2019-03-31T01:36:32.675Z,80.82
2019-03-31T01:37:32.667Z,81.02
2019-03-31T01:38:32.651Z,80.72
2019-03-31T01:39:32.660Z,81.13
2019-03-31T01:40:32.648Z,81.13
2019-03-31T01:41:32.624Z,80.82
2019-03-31T01:42:32.608Z,80.72
2019-03-31T01:43:32.595Z,80.72
2019-03-31T01:44:32.584Z,81.23
2019-03-31T01:45:32.583Z,80.86
2019-03-31T01:46:32.564Z,81.57
2019-03-31T01:47:32.552Z,80.55
2019-03-31T01:48:32.564Z,81.06
2019-03-31T01:49:32.541Z,81.27
2019-03-31T01:50:32.519Z,80.76
2019-03-31T01:51:32.507Z,80.35
2019-03-31T01:52:32.511Z,80.24
2019-03-31T01:53:32.503Z,80.35
2019-03-31T01:54:32.487Z,80.45
2019-03-31T01:55:32.459Z,80.04
2019-03-31T01:56:32.456Z,80.04
2019-03-31T01:57:32.440Z,80.14
2019-03-31T01:58:32.428Z,80.82
2019-03-31T01:59:32.420Z,80.51
2019-03-31T02:00:32.417Z,80.31
2019-03-31T02:01:32.407Z,80.14
2019-03-31T02:02:32.455Z,80.24
2019-03-31T02:03:32.369Z,80.41
2019-03-31T02:04:32.355Z,80.24
2019-03-31T02:05:32.350Z,80.62
2019-03-31T02:06:32.354Z,80.51
2019-03-31T02:07:32.323Z,80.76
2019-03-31T02:08:32.321Z,80.55
2019-03-31T02:09:32.303Z,80.92
2019-03-31T02:10:32.286Z,81.02
2019-03-31T02:11:32.279Z,81.13
2019-03-31T02:12:32.280Z,80.72
2019-03-31T02:13:32.257Z,81.43
2019-03-31T02:14:32.251Z,81.64
2019-03-31T02:15:32.255Z,81.54
2019-03-31T02:16:32.230Z,81.64
2019-03-31T02:17:32.252Z,81.74
2019-03-31T02:18:32.211Z,81.23
2019-03-31T02:19:32.209Z,81.23
2019-03-31T02:20:32.196Z,81.02
2019-03-31T02:21:32.171Z,81.43
2019-03-31T02:22:32.159Z,81.64
2019-03-31T02:23:32.156Z,81.34
2019-03-31T02:24:32.131Z,81.13
2019-03-31T02:25:32.134Z,80.92
2019-03-31T02:26:32.121Z,80.72
2019-03-31T02:27:32.118Z,81.13
2019-03-31T02:28:32.107Z,81.02
2019-03-31T02:29:32.092Z,81.34
2019-03-31T02:30:32.081Z,80.72
2019-03-31T02:31:32.076Z,80.82
2019-03-31T02:32:32.045Z,80.72
2019-03-31T02:33:32.040Z,80.62
2019-03-31T02:34:32.034Z,81.34
2019-03-31T02:35:32.031Z,80.51
2019-03-31T02:36:32.004Z,80.62
2019-03-31T02:37:31.984Z,80.00
2019-03-31T02:38:31.975Z,81.23
2019-03-31T02:39:31.979Z,80.31
2019-03-31T02:40:31.968Z,79.49
2019-03-31T02:41:31.959Z,79.69
2019-03-31T02:42:31.933Z,79.90
2019-03-31T02:43:31.924Z,79.90
2019-03-31T02:44:31.919Z,79.59
2019-03-31T02:45:31.900Z,79.38
2019-03-31T02:46:31.901Z,79.38
2019-03-31T02:47:31.900Z,79.08
2019-03-31T02:48:31.860Z,79.38
2019-03-31T02:49:31.853Z,79.38
2019-03-31T02:50:31.849Z,79.69
2019-03-31T02:51:31.940Z,79.69
2019-03-31T02:52:31.836Z,80.14
2019-03-31T02:53:31.832Z,80.14
2019-03-31T02:54:31.807Z,80.24
2019-03-31T02:55:31.813Z,80.24
2019-03-31T02:56:31.775Z,80.65
2019-03-31T02:57:31.772Z,80.65
2019-03-31T02:58:31.761Z,81.06
2019-03-31T02:59:31.777Z,80.65
2019-03-31T03:00:31.736Z,80.86
2019-03-31T03:01:31.739Z,80.96
2019-03-31T03:02:41.625Z,80.96
2019-03-31T03:03:32.708Z,81.16
2019-03-31T03:04:31.680Z,80.24
2019-03-31T03:05:31.691Z,79.93
2019-03-31T03:06:31.664Z,80.45
2019-03-31T03:07:31.651Z,80.04
2019-03-31T03:08:31.635Z,79.83
2019-03-31T03:09:31.624Z,80.24
2019-03-31T03:10:31.633Z,80.24
2019-03-31T03:11:31.626Z,80.86
2019-03-31T03:12:31.591Z,80.45
2019-03-31T03:13:31.576Z,80.58
2019-03-31T03:14:31.568Z,81.10
2019-03-31T03:15:31.569Z,81.06
2019-03-31T03:16:31.558Z,81.00
2019-03-31T03:17:31.551Z,81.20
2019-03-31T03:18:31.524Z,81.20
2019-03-31T03:19:31.525Z,81.41
2019-03-31T03:20:31.502Z,81.51
2019-03-31T03:21:31.513Z,81.62
2019-03-31T03:22:31.495Z,81.92
2019-03-31T03:23:31.469Z,81.62
2019-03-31T03:24:31.459Z,81.71
2019-03-31T03:25:31.447Z,81.92
2019-03-31T03:26:31.537Z,82.78
2019-03-31T03:27:31.435Z,82.37
2019-03-31T03:28:31.443Z,82.75
2019-03-31T03:29:31.403Z,82.78
2019-03-31T03:30:31.477Z,82.27
2019-03-31T03:31:31.391Z,82.75
2019-03-31T03:32:31.368Z,82.78
2019-03-31T03:33:31.378Z,82.89
2019-03-31T03:34:31.354Z,82.89
2019-03-31T03:35:31.381Z,82.99
2019-03-31T03:36:31.325Z,83.09
2019-03-31T03:37:31.308Z,82.68
2019-03-31T03:38:31.315Z,82.99
2019-03-31T03:39:31.289Z,82.92
2019-03-31T03:40:31.280Z,82.68
2019-03-31T03:41:31.270Z,83.13
2019-03-31T03:42:31.257Z,82.71
2019-03-31T03:43:31.245Z,82.62
2019-03-31T03:44:31.253Z,82.82
2019-03-31T03:45:31.237Z,83.13
2019-03-31T03:46:31.207Z,83.03
2019-03-31T03:47:31.196Z,83.03
2019-03-31T03:48:31.193Z,83.13
2019-03-31T03:49:31.172Z,82.62
2019-03-31T03:50:31.179Z,82.62
2019-03-31T03:51:31.151Z,82.62
2019-03-31T03:52:31.165Z,83.27
2019-03-31T03:53:31.131Z,83.37
2019-03-31T03:54:31.126Z,83.13
2019-03-31T03:55:31.125Z,83.58
2019-03-31T03:56:31.099Z,83.33
2019-03-31T03:57:31.085Z,84.40
2019-03-31T03:58:31.079Z,84.30
2019-03-31T03:59:31.061Z,84.40
2019-03-31T04:00:31.051Z,84.40
2019-03-31T04:01:31.051Z,84.71
2019-03-31T04:02:31.052Z,84.61
2019-03-31T04:03:31.295Z,84.81
2019-03-31T04:04:31.004Z,84.50
2019-03-31T04:05:30.995Z,85.33
2019-03-31T04:06:30.982Z,84.64
2019-03-31T04:07:30.985Z,84.81
2019-03-31T04:08:30.960Z,84.85
2019-03-31T04:09:30.959Z,84.91
2019-03-31T04:10:30.936Z,85.16
2019-03-31T04:11:30.946Z,84.95
2019-03-31T04:12:30.913Z,84.54
2019-03-31T04:13:30.900Z,84.54
2019-03-31T04:14:30.895Z,85.06
2019-03-31T04:15:30.886Z,84.69
2019-03-31T04:16:30.884Z,84.54
2019-03-31T04:17:30.883Z,84.79
2019-03-31T04:18:30.848Z,84.69
2019-03-31T04:19:30.836Z,84.75
2019-03-31T04:20:30.825Z,84.99
2019-03-31T04:21:30.812Z,84.99
2019-03-31T04:22:30.805Z,85.10
2019-03-31T04:23:30.800Z,84.58
2019-03-31T04:24:30.801Z,84.79
2019-03-31T04:25:30.765Z,84.99
2019-03-31T04:26:30.761Z,85.41
2019-03-31T04:27:30.748Z,85.30
2019-03-31T04:28:30.748Z,85.51
2019-03-31T04:29:30.728Z,84.99
2019-03-31T04:30:30.744Z,85.20
2019-03-31T04:31:30.725Z,84.48
2019-03-31T04:32:30.689Z,84.89
2019-03-31T04:33:49.699Z,85.30
2019-03-31T04:34:31.665Z,85.41
2019-03-31T04:35:30.652Z,85.61
2019-03-31T04:36:30.677Z,85.30
2019-03-31T04:37:30.635Z,85.65
2019-03-31T04:38:30.627Z,85.55
2019-03-31T04:39:30.613Z,86.33
2019-03-31T04:40:30.608Z,86.54
2019-03-31T04:41:30.612Z,86.64
2019-03-31T04:42:30.607Z,86.23
2019-03-31T04:43:30.583Z,85.92
2019-03-31T04:44:30.564Z,85.41
2019-03-31T04:45:30.548Z,85.75
2019-03-31T04:46:30.534Z,85.65
2019-03-31T04:47:30.553Z,85.51
2019-03-31T04:48:30.513Z,85.55
2019-03-31T04:49:30.504Z,86.47
2019-03-31T04:50:30.487Z,86.54
2019-03-31T04:51:30.474Z,85.55
2019-03-31T04:52:30.470Z,86.58
2019-03-31T04:53:30.494Z,86.27
2019-03-31T04:54:30.491Z,86.47
2019-03-31T04:55:30.431Z,86.58
2019-03-31T04:56:30.419Z,86.27
2019-03-31T04:57:30.411Z,86.06
2019-03-31T04:58:30.397Z,86.47
2019-03-31T04:59:30.398Z,86.37
2019-03-31T05:00:30.375Z,86.47
2019-03-31T05:01:30.363Z,86.27
2019-03-31T05:02:30.355Z,86.16
2019-03-31T05:03:30.382Z,85.55
2019-03-31T05:04:30.351Z,85.96
2019-03-31T05:05:30.316Z,86.21
2019-03-31T05:06:30.303Z,86.72
2019-03-31T05:07:30.308Z,86.31
2019-03-31T05:08:30.297Z,86.52
2019-03-31T05:09:30.287Z,86.82
2019-03-31T05:10:30.291Z,86.58
2019-03-31T05:11:30.263Z,86.52
2019-03-31T05:12:30.259Z,86.61
2019-03-31T05:13:30.242Z,86.37
2019-03-31T05:14:30.244Z,86.72
2019-03-31T05:15:30.237Z,86.82
2019-03-31T05:16:30.190Z,86.82
2019-03-31T05:17:30.183Z,86.61
2019-03-31T05:18:30.171Z,86.72
2019-03-31T05:19:30.172Z,86.31
2019-03-31T05:20:30.158Z,86.00
2019-03-31T05:21:30.171Z,85.69
2019-03-31T05:22:30.126Z,86.31
2019-03-31T05:23:30.118Z,86.61
2019-03-31T05:24:30.102Z,86.52
2019-03-31T05:25:30.092Z,86.41
2019-03-31T05:26:30.080Z,85.89
2019-03-31T05:27:30.082Z,86.55
2019-03-31T05:28:30.057Z,86.52
2019-03-31T05:29:30.044Z,86.41
2019-03-31T05:30:30.036Z,86.87
2019-03-31T05:31:30.023Z,86.93
2019-03-31T05:32:30.027Z,87.54
2019-03-31T05:33:29.999Z,87.59
2019-03-31T05:34:29.986Z,87.54
2019-03-31T05:35:29.979Z,86.97
2019-03-31T05:36:29.964Z,87.59
2019-03-31T05:37:29.981Z,87.27
2019-03-31T05:38:29.946Z,87.59
2019-03-31T05:39:29.998Z,87.59
2019-03-31T05:40:30.846Z,87.27
2019-03-31T05:41:29.922Z,88.10
2019-03-31T05:42:29.903Z,88.10
2019-03-31T05:43:29.896Z,87.99
2019-03-31T05:44:29.882Z,88.62
2019-03-31T05:45:29.866Z,88.41
2019-03-31T05:46:29.864Z,88.82
2019-03-31T05:47:29.846Z,88.72
2019-03-31T05:48:29.849Z,89.03
2019-03-31T05:49:29.825Z,88.92
2019-03-31T05:50:29.821Z,88.72
2019-03-31T05:51:29.820Z,89.75
2019-03-31T05:52:29.859Z,88.41
2019-03-31T05:53:29.788Z,88.72
2019-03-31T05:54:29.761Z,88.62
2019-03-31T05:55:29.755Z,88.31
2019-03-31T05:56:29.743Z,88.65
2019-03-31T05:57:29.745Z,88.76
2019-03-31T05:58:29.713Z,88.82
2019-03-31T05:59:29.717Z,89.03
2019-03-31T06:00:29.701Z,88.82
2019-03-31T06:01:29.686Z,88.96
2019-03-31T06:02:29.668Z,89.58
2019-03-31T06:03:29.678Z,89.28
2019-03-31T06:04:33.425Z,89.17
2019-03-31T06:05:29.642Z,89.79
2019-03-31T06:06:29.625Z,88.76
2019-03-31T06:07:29.616Z,88.86
2019-03-31T06:08:29.606Z,88.96
2019-03-31T06:09:29.609Z,88.76
2019-03-31T06:10:29.582Z,88.35
2019-03-31T06:11:29.569Z,89.83
2019-03-31T06:12:29.561Z,89.11
2019-03-31T06:13:29.563Z,89.73
2019-03-31T06:14:29.561Z,89.62
2019-03-31T06:15:29.531Z,90.25
2019-03-31T06:16:29.517Z,90.04
2019-03-31T06:17:29.513Z,90.04
2019-03-31T06:18:29.494Z,89.94
2019-03-31T06:19:29.481Z,89.94
2019-03-31T06:20:29.485Z,89.94
2019-03-31T06:21:29.468Z,89.73
2019-03-31T06:22:29.449Z,89.73
2019-03-31T06:23:29.432Z,90.55
2019-03-31T06:24:29.430Z,90.45
2019-03-31T06:25:29.418Z,90.25
2019-03-31T06:26:29.414Z,90.55
2019-03-31T06:27:29.387Z,89.83
2019-03-31T06:28:29.378Z,90.45
2019-03-31T06:29:29.362Z,89.94
2019-03-31T06:30:29.353Z,90.66
2019-03-31T06:31:29.357Z,90.66
2019-03-31T06:32:29.333Z,90.92
2019-03-31T06:33:29.321Z,90.35
2019-03-31T06:34:29.331Z,90.10
2019-03-31T06:35:29.308Z,90.10
2019-03-31T06:36:29.293Z,89.89
2019-03-31T06:37:29.277Z,90.10
2019-03-31T06:38:29.265Z,89.69
2019-03-31T06:39:29.273Z,89.17
2019-03-31T06:40:29.281Z,89.58
2019-03-31T06:41:29.233Z,90.20
2019-03-31T06:42:29.220Z,89.89
2019-03-31T06:43:29.244Z,90.00
2019-03-31T06:44:29.200Z,89.79
2019-03-31T06:45:29.204Z,89.89
2019-03-31T06:46:29.178Z,89.48
2019-03-31T06:47:29.168Z,90.16
2019-03-31T06:48:29.154Z,90.31
2019-03-31T06:49:29.141Z,89.13
2019-03-31T06:50:29.125Z,89.34
2019-03-31T06:51:29.145Z,89.44
2019-03-31T06:52:29.100Z,88.92
2019-03-31T06:53:29.096Z,88.82
2019-03-31T06:54:29.092Z,89.23
2019-03-31T06:55:29.092Z,88.72
2019-03-31T06:56:29.056Z,88.92
2019-03-31T06:57:29.061Z,89.23
2019-03-31T06:58:29.043Z,88.62
2019-03-31T06:59:29.031Z,89.07
2019-03-31T07:00:29.021Z,89.79
2019-03-31T07:01:29.008Z,89.79
2019-03-31T07:02:28.997Z,89.48
2019-03-31T07:03:29.016Z,89.65
2019-03-31T07:04:28.972Z,89.79
2019-03-31T07:05:28.960Z,89.28
2019-03-31T07:06:28.951Z,88.96
2019-03-31T07:07:28.937Z,89.65
2019-03-31T07:08:28.953Z,89.44
2019-03-31T07:09:28.936Z,89.75
2019-03-31T07:10:28.904Z,89.75
2019-03-31T07:11:28.894Z,89.65
2019-03-31T07:12:28.881Z,88.62
2019-03-31T07:13:28.868Z,89.34
2019-03-31T07:14:28.872Z,90.22
2019-03-31T07:15:28.848Z,90.01
2019-03-31T07:16:28.836Z,89.81
2019-03-31T07:17:28.847Z,89.29
2019-03-31T07:18:28.813Z,89.67
2019-03-31T07:19:28.800Z,89.46
2019-03-31T07:20:28.823Z,87.92
2019-03-31T07:21:28.780Z,88.95
2019-03-31T07:22:28.773Z,87.81
2019-03-31T07:23:28.757Z,88.43
2019-03-31T07:24:28.744Z,88.64
2019-03-31T07:25:28.737Z,88.12
2019-03-31T07:26:28.746Z,87.30
2019-03-31T07:27:28.714Z,87.30
2019-03-31T07:28:28.701Z,87.71
2019-03-31T07:29:28.689Z,88.02
2019-03-31T07:30:28.680Z,88.12
2019-03-31T07:31:28.668Z,87.81
2019-03-31T07:32:28.690Z,87.81
2019-03-31T07:33:28.652Z,87.36
2019-03-31T07:34:28.645Z,87.15
2019-03-31T07:35:28.623Z,87.67
2019-03-31T07:36:28.613Z,87.26
2019-03-31T07:37:28.597Z,86.54
2019-03-31T07:38:38.854Z,86.91
2019-03-31T07:39:29.643Z,86.60
2019-03-31T07:40:28.578Z,86.87
2019-03-31T07:41:28.831Z,86.46
2019-03-31T07:42:28.656Z,86.66
2019-03-31T07:43:28.532Z,86.25
2019-03-31T07:44:28.544Z,86.77
2019-03-31T07:45:28.508Z,85.74
2019-03-31T07:46:28.501Z,84.71
2019-03-31T07:47:28.484Z,84.71
2019-03-31T07:48:28.477Z,84.36
2019-03-31T07:49:28.472Z,84.56
2019-03-31T07:50:28.542Z,84.26
2019-03-31T07:51:28.443Z,84.47
2019-03-31T07:52:28.496Z,83.23
2019-03-31T07:53:28.437Z,83.33
2019-03-31T07:54:28.439Z,83.70
2019-03-31T07:55:28.407Z,82.78
2019-03-31T07:56:28.395Z,81.96
2019-03-31T07:57:28.382Z,81.96
2019-03-31T07:58:28.390Z,82.47
2019-03-31T07:59:28.456Z,80.83
2019-03-31T08:00:28.356Z,82.03
2019-03-31T08:01:28.343Z,82.54
2019-03-31T08:02:28.323Z,82.43
2019-03-31T08:03:28.303Z,81.30
2019-03-31T08:04:28.308Z,81.30
2019-03-31T08:05:33.279Z,81.51
2019-03-31T08:06:29.296Z,81.51
2019-03-31T08:07:28.273Z,81.71
2019-03-31T08:08:28.312Z,80.86
2019-03-31T08:09:28.249Z,80.86
2019-03-31T08:10:28.233Z,81.06
2019-03-31T08:11:28.222Z,81.16
2019-03-31T08:12:28.235Z,80.04
2019-03-31T08:13:28.196Z,80.14
2019-03-31T08:14:28.195Z,80.76
2019-03-31T08:15:28.175Z,80.45
2019-03-31T08:16:28.155Z,80.76
2019-03-31T08:17:28.159Z,80.04
2019-03-31T08:18:28.152Z,79.52
2019-03-31T08:19:28.123Z,80.14
2019-03-31T08:20:28.120Z,80.00
2019-03-31T08:21:28.109Z,80.10
2019-03-31T08:22:28.091Z,80.92
2019-03-31T08:23:28.095Z,79.49
2019-03-31T08:24:28.099Z,79.96
2019-03-31T08:25:28.056Z,79.41
2019-03-31T08:26:28.057Z,79.00
2019-03-31T08:27:28.052Z,76.31
2019-03-31T08:28:28.039Z,75.79
2019-03-31T08:29:28.039Z,77.12
2019-03-31T08:30:28.003Z,77.60
2019-03-31T08:31:27.988Z,75.55
2019-03-31T08:32:28.601Z,74.15
2019-03-31T08:33:27.976Z,75.04
2019-03-31T08:34:27.963Z,75.14
2019-03-31T08:35:27.969Z,75.86
2019-03-31T08:36:35.430Z,74.94
2019-03-31T08:37:27.920Z,74.32
2019-03-31T08:38:27.908Z,75.14
2019-03-31T08:39:27.901Z,75.14
2019-03-31T08:40:27.903Z,73.44
2019-03-31T08:41:27.872Z,73.74
2019-03-31T08:42:27.927Z,74.87
2019-03-31T08:43:27.855Z,74.15
2019-03-31T08:44:27.840Z,74.56
2019-03-31T08:45:30.453Z,73.85
2019-03-31T08:46:27.935Z,74.56
2019-03-31T08:47:27.811Z,74.15
2019-03-31T08:48:27.868Z,75.28
2019-03-31T08:49:27.784Z,75.18
2019-03-31T08:50:27.772Z,75.28
2019-03-31T08:51:27.787Z,75.48
2019-03-31T08:52:27.759Z,75.07
2019-03-31T08:53:27.775Z,74.49
2019-03-31T08:54:27.762Z,75.42
2019-03-31T08:55:27.717Z,75.21
2019-03-31T08:56:27.810Z,75.48
2019-03-31T08:57:27.709Z,75.28
2019-03-31T08:58:27.679Z,75.99
2019-03-31T08:59:27.683Z,75.38
2019-03-31T09:00:27.683Z,75.99
2019-03-31T09:01:27.648Z,75.14
2019-03-31T09:02:27.639Z,75.42
2019-03-31T09:03:27.636Z,73.98
2019-03-31T09:04:27.611Z,73.57
2019-03-31T09:05:27.607Z,73.36
2019-03-31T09:06:27.591Z,73.16
2019-03-31T09:07:27.583Z,73.16
2019-03-31T09:08:27.586Z,71.83
2019-03-31T09:09:27.571Z,72.75
2019-03-31T09:10:27.543Z,72.96
2019-03-31T09:11:27.538Z,73.36
2019-03-31T09:12:27.527Z,71.83
2019-03-31T09:13:27.514Z,73.27
2019-03-31T09:14:27.523Z,73.16
2019-03-31T09:15:27.507Z,71.62
2019-03-31T09:16:27.478Z,73.57
2019-03-31T09:17:27.462Z,73.27
2019-03-31T09:18:27.451Z,73.27
2019-03-31T09:19:27.446Z,72.86
2019-03-31T09:20:27.430Z,71.62
2019-03-31T09:21:27.442Z,72.34
2019-03-31T09:22:27.439Z,72.75
2019-03-31T09:23:27.395Z,72.82
2019-03-31T09:24:27.393Z,72.72
2019-03-31T09:25:27.380Z,72.24
2019-03-31T09:26:27.359Z,71.70
2019-03-31T09:27:27.371Z,71.94
2019-03-31T09:28:27.371Z,71.80
2019-03-31T09:29:27.373Z,72.31
2019-03-31T09:30:27.319Z,71.90
2019-03-31T09:31:27.307Z,73.85
2019-03-31T09:32:27.332Z,74.35
2019-03-31T09:33:27.304Z,74.15
2019-03-31T09:34:27.269Z,72.86
2019-03-31T09:35:27.259Z,72.14
2019-03-31T09:36:27.251Z,72.24
2019-03-31T09:37:27.243Z,72.86
2019-03-31T09:38:27.240Z,73.16
2019-03-31T09:39:27.212Z,71.94
2019-03-31T09:40:27.204Z,71.73
2019-03-31T09:41:27.190Z,70.81
2019-03-31T09:42:27.179Z,73.57
2019-03-31T09:43:27.174Z,73.54
2019-03-31T09:44:30.177Z,73.23
2019-03-31T09:45:27.146Z,72.82
2019-03-31T09:46:27.134Z,73.23
2019-03-31T09:47:27.143Z,71.39
2019-03-31T09:48:27.113Z,72.69
2019-03-31T09:49:27.106Z,72.58
2019-03-31T09:50:27.180Z,72.58
2019-03-31T09:51:27.078Z,72.72
2019-03-31T09:52:27.067Z,73.20
2019-03-31T09:53:27.067Z,71.70
2019-03-31T09:54:27.075Z,71.49
2019-03-31T09:55:27.056Z,72.92
2019-03-31T09:56:27.047Z,73.10
2019-03-31T09:57:27.007Z,72.07
2019-03-31T09:58:27.003Z,70.23
2019-03-31T09:59:26.990Z,70.64
2019-03-31T10:00:26.977Z,70.54
2019-03-31T10:01:26.963Z,70.03
2019-03-31T10:02:26.978Z,70.95
2019-03-31T10:03:26.940Z,70.13
2019-03-31T10:04:26.928Z,70.92
2019-03-31T10:05:26.919Z,68.26
2019-03-31T10:06:30.452Z,67.95
2019-03-31T10:07:26.926Z,68.53
2019-03-31T10:08:26.895Z,69.04
2019-03-31T10:09:26.871Z,67.00
2019-03-31T10:10:26.871Z,66.80
2019-03-31T10:11:26.862Z,66.52
2019-03-31T10:12:26.835Z,67.95
2019-03-31T10:13:26.888Z,65.30
2019-03-31T10:14:26.874Z,67.54
2019-03-31T10:15:26.807Z,68.39
2019-03-31T10:16:26.819Z,68.49
2019-03-31T10:17:26.843Z,68.80
2019-03-31T10:18:26.775Z,69.55
2019-03-31T10:19:26.754Z,68.73
2019-03-31T10:20:26.743Z,68.01
2019-03-31T10:21:26.787Z,68.42
2019-03-31T10:22:26.726Z,69.34
2019-03-31T10:23:26.720Z,68.93
2019-03-31T10:24:26.702Z,69.85
2019-03-31T10:25:26.696Z,70.16
2019-03-31T10:26:32.349Z,70.57
2019-03-31T10:27:27.682Z,70.37
2019-03-31T10:28:26.672Z,71.29
2019-03-31T10:29:26.639Z,70.16
2019-03-31T10:30:26.631Z,71.70
2019-03-31T10:31:26.631Z,70.98
2019-03-31T10:32:26.611Z,71.29
2019-03-31T10:33:26.595Z,70.43
2019-03-31T10:34:26.596Z,70.64
2019-03-31T10:35:26.572Z,70.23
2019-03-31T10:36:26.560Z,69.72
2019-03-31T10:37:26.566Z,70.30
2019-03-31T10:38:26.544Z,70.10
2019-03-31T10:39:26.553Z,69.28
2019-03-31T10:40:26.521Z,68.26
2019-03-31T10:41:26.507Z,67.75
2019-03-31T10:42:26.492Z,68.26
2019-03-31T10:43:26.497Z,67.54
2019-03-31T10:44:26.470Z,66.62
2019-03-31T10:45:26.458Z,68.46
2019-03-31T10:46:26.459Z,68.26
2019-03-31T10:47:26.460Z,67.65
2019-03-31T10:48:26.453Z,68.46
2019-03-31T10:49:26.411Z,70.40
2019-03-31T10:50:26.398Z,68.05
2019-03-31T10:51:26.393Z,69.04
2019-03-31T10:52:26.382Z,69.04
2019-03-31T10:53:26.374Z,68.33
2019-03-31T10:54:26.379Z,68.33
2019-03-31T10:55:26.346Z,67.41
2019-03-31T10:56:26.332Z,68.23
2019-03-31T10:57:26.322Z,68.23
2019-03-31T10:58:26.307Z,64.75
2019-03-31T10:59:26.296Z,64.45
2019-03-31T11:00:26.306Z,67.30
2019-03-31T11:01:26.275Z,67.30
2019-03-31T11:02:26.268Z,65.77
2019-03-31T11:03:26.254Z,66.59
2019-03-31T11:04:26.246Z,65.30
2019-03-31T11:05:26.227Z,66.11
2019-03-31T11:06:26.271Z,66.42
2019-03-31T11:07:26.218Z,66.42
2019-03-31T11:08:26.202Z,67.51
2019-03-31T11:09:26.234Z,67.82
2019-03-31T11:10:26.179Z,67.10
2019-03-31T11:11:26.172Z,66.28
2019-03-31T11:12:26.194Z,68.63
2019-03-31T11:13:26.142Z,66.90
2019-03-31T11:14:26.126Z,67.30
2019-03-31T11:15:26.151Z,67.61
2019-03-31T11:16:26.121Z,66.97
2019-03-31T11:17:26.110Z,66.12
2019-03-31T11:18:26.098Z,67.14
2019-03-31T11:19:26.082Z,65.92
2019-03-31T11:20:26.066Z,64.90
2019-03-31T11:21:26.048Z,64.52
2019-03-31T11:22:26.039Z,64.72
2019-03-31T11:23:26.047Z,64.96
2019-03-31T11:24:26.012Z,66.42
2019-03-31T11:25:29.201Z,66.04
2019-03-31T11:26:26.020Z,66.99
2019-03-31T11:27:25.983Z,68.12
2019-03-31T11:28:25.972Z,69.14
2019-03-31T11:29:25.989Z,67.81
2019-03-31T11:30:25.955Z,67.50
2019-03-31T11:31:25.978Z,68.73
2019-03-31T11:32:25.970Z,68.46
2019-03-31T11:33:25.910Z,67.44
2019-03-31T11:34:25.898Z,68.05
2019-03-31T11:35:25.922Z,67.54
2019-03-31T11:36:25.878Z,66.49
2019-03-31T11:37:25.869Z,68.74
2019-03-31T11:38:25.858Z,67.27
2019-03-31T11:39:25.846Z,68.09
2019-03-31T11:40:25.891Z,68.09
2019-03-31T11:41:25.830Z,66.77
2019-03-31T11:42:25.813Z,67.55
2019-03-31T11:43:25.797Z,67.55
2019-03-31T11:44:27.713Z,67.45
2019-03-31T11:45:25.774Z,67.82
2019-03-31T11:46:25.782Z,67.11
2019-03-31T11:47:25.756Z,66.50
2019-03-31T11:48:25.742Z,66.19
2019-03-31T11:49:25.734Z,66.39
2019-03-31T11:50:25.796Z,66.80
2019-03-31T11:51:25.710Z,65.78
2019-03-31T11:52:25.717Z,65.17
2019-03-31T11:53:25.690Z,63.85
2019-03-31T11:54:25.686Z,63.13
2019-03-31T11:55:25.662Z,63.03
2019-03-31T11:56:25.674Z,64.32
2019-03-31T11:57:25.642Z,64.25
2019-03-31T11:58:25.630Z,64.02
2019-03-31T11:59:25.625Z,62.21
2019-03-31T12:00:25.614Z,63.57
2019-03-31T12:01:25.594Z,63.54
2019-03-31T12:02:27.380Z,64.25
2019-03-31T12:03:25.595Z,62.62
2019-03-31T12:04:25.562Z,63.34
2019-03-31T12:05:25.566Z,63.75
2019-03-31T12:06:25.542Z,63.64
2019-03-31T12:07:28.169Z,63.85
2019-03-31T12:08:25.514Z,63.10
2019-03-31T12:09:25.501Z,60.76
2019-03-31T12:10:25.542Z,61.57
2019-03-31T12:11:25.522Z,59.94
2019-03-31T12:12:25.469Z,61.07
2019-03-31T12:13:25.463Z,60.25
2019-03-31T12:14:25.450Z,60.96
2019-03-31T12:15:25.442Z,59.74
2019-03-31T12:16:25.422Z,63.41
2019-03-31T12:17:25.426Z,63.07
2019-03-31T12:18:25.463Z,62.18
2019-03-31T12:19:25.410Z,61.98
2019-03-31T12:20:25.381Z,61.04
2019-03-31T12:21:25.367Z,59.81
2019-03-31T12:22:25.354Z,61.27
2019-03-31T12:23:25.346Z,60.76
2019-03-31T12:24:25.346Z,60.28
2019-03-31T12:25:25.338Z,59.80
2019-03-31T12:26:25.315Z,60.74
2019-03-31T12:27:25.316Z,61.43
2019-03-31T12:28:25.302Z,62.17
2019-03-31T12:29:25.274Z,63.26
2019-03-31T12:30:25.267Z,61.63
2019-03-31T12:31:25.257Z,62.04
2019-03-31T12:32:25.287Z,61.53
2019-03-31T12:33:25.234Z,63.16
2019-03-31T12:34:25.235Z,63.47
2019-03-31T12:35:25.214Z,61.63
2019-03-31T12:36:25.198Z,60.51
2019-03-31T12:37:25.191Z,61.15
2019-03-31T12:38:25.181Z,62.30
2019-03-31T12:39:25.225Z,62.68
2019-03-31T12:40:25.165Z,62.17
2019-03-31T12:41:25.158Z,63.40
2019-03-31T12:42:25.130Z,62.37
2019-03-31T12:43:25.127Z,61.05
2019-03-31T12:44:25.362Z,63.60
2019-03-31T12:45:25.111Z,63.40
2019-03-31T12:46:25.095Z,64.28
2019-03-31T12:47:25.086Z,64.28
2019-03-31T12:48:25.075Z,63.64
2019-03-31T12:49:25.064Z,62.01
2019-03-31T12:50:25.038Z,62.21
2019-03-31T12:51:25.086Z,62.01
2019-03-31T12:52:30.315Z,61.07